Terminal Aerodrome Forecast
Issued by NWS

Home | Current Version | Previous Version | Text Only | Print | Product List | Glossary On
Versions: 1 2 3 4 5 6 7 8 9 10 11 12 13 14
000
FTUS46 KSEW 311130
TAFOLM
TAF
KOLM 311130Z 3112/0112 18006KT P6SM OVC045
     FM311500 21008KT P6SM -RA SCT022 OVC035
      TEMPO 3118/3122 5SM -RA BKN022 OVC035
     FM312200 21008KT P6SM VCSH SCT025 BKN040
     FM010400 18008KT P6SM SCT050
     FM011100 15004KT 4SM BR SCT002 BKN200=

USA.gov is the U.S. government's official web portal to all federal, state and local government web resources and services.